sensor_id;sensor_type;location;lat;lon;timestamp;pressure;altitude;pressure_sealevel;temperature;humidity
20062;BME280;10191;42.710;23.310;2022-09-03T00:01:28;94948.38;;;23.76;53.18
20062;BME280;10191;42.710;23.310;2022-09-03T00:04:04;94957.38;;;23.75;53.31
20062;BME280;10191;42.710;23.310;2022-09-03T00:06:44;94946.78;;;23.75;53.18
20062;BME280;10191;42.710;23.310;2022-09-03T00:09:21;94957.47;;;23.80;53.40
20062;BME280;10191;42.710;23.310;2022-09-03T00:12:04;94960.81;;;23.79;53.43
20062;BME280;10191;42.710;23.310;2022-09-03T00:14:40;94964.22;;;23.83;53.37
20062;BME280;10191;42.710;23.310;2022-09-03T00:17:13;94961.25;;;23.77;52.98
20062;BME280;10191;42.710;23.310;2022-09-03T00:19:59;94953.19;;;23.85;53.42
20062;BME280;10191;42.710;23.310;2022-09-03T00:22:33;94954.44;;;23.84;53.29
20062;BME280;10191;42.710;23.310;2022-09-03T00:25:03;94953.66;;;23.83;52.84
20062;BME280;10191;42.710;23.310;2022-09-03T00:27:32;94941.91;;;23.76;52.99
20062;BME280;10191;42.710;23.310;2022-09-03T00:30:13;94953.47;;;23.87;52.83
20062;BME280;10191;42.710;23.310;2022-09-03T00:32:46;94951.72;;;23.89;53.02
20062;BME280;10191;42.710;23.310;2022-09-03T00:38:22;94943.88;;;23.84;53.07
20062;BME280;10191;42.710;23.310;2022-09-03T01:00:14;94956.69;;;23.80;52.85
20062;BME280;10191;42.710;23.310;2022-09-03T01:05:15;94956.19;;;24.84;49.60
20062;BME280;10191;42.710;23.310;2022-09-03T01:07:54;94952.56;;;24.98;49.09
20062;BME280;10191;42.710;23.310;2022-09-03T01:18:32;94950.31;;;24.87;48.60
20062;BME280;10191;42.710;23.310;2022-09-03T01:21:13;94953.00;;;24.76;48.46
20062;BME280;10191;42.710;23.310;2022-09-03T01:23:47;94969.06;;;24.79;48.47
20062;BME280;10191;42.710;23.310;2022-09-03T01:26:36;94959.84;;;24.69;48.45
20062;BME280;10191;42.710;23.310;2022-09-03T01:31:41;94971.59;;;24.48;48.53
20062;BME280;10191;42.710;23.310;2022-09-03T01:34:15;94981.28;;;24.41;48.54
20062;BME280;10191;42.710;23.310;2022-09-03T01:39:13;94981.50;;;24.23;48.47
20062;BME280;10191;42.710;23.310;2022-09-03T01:41:47;94993.25;;;24.16;48.83
20062;BME280;10191;42.710;23.310;2022-09-03T01:48:05;94986.59;;;24.05;48.73
20062;BME280;10191;42.710;23.310;2022-09-03T01:50:12;94976.00;;;24.05;48.77
20062;BME280;10191;42.710;23.310;2022-09-03T01:52:55;94971.63;;;24.04;48.89
20062;BME280;10191;42.710;23.310;2022-09-03T01:55:35;94975.03;;;24.08;48.93
20062;BME280;10191;42.710;23.310;2022-09-03T01:58:17;94969.31;;;23.93;48.80
20062;BME280;10191;42.710;23.310;2022-09-03T02:00:50;94975.25;;;23.19;51.31
20062;BME280;10191;42.710;23.310;2022-09-03T02:03:22;94968.63;;;22.98;52.90
20062;BME280;10191;42.710;23.310;2022-09-03T02:05:48;94973.16;;;23.05;53.08
20062;BME280;10191;42.710;23.310;2022-09-03T02:08:17;94967.59;;;23.10;53.52
20062;BME280;10191;42.710;23.310;2022-09-03T02:10:46;94965.00;;;23.21;53.00
20062;BME280;10191;42.710;23.310;2022-09-03T02:13:22;94968.94;;;23.24;53.21
20062;BME280;10191;42.710;23.310;2022-09-03T02:15:51;94971.91;;;23.20;52.97
20062;BME280;10191;42.710;23.310;2022-09-03T02:18:30;94989.63;;;23.39;53.00
20062;BME280;10191;42.710;23.310;2022-09-03T02:20:58;94985.31;;;23.44;52.95
20062;BME280;10191;42.710;23.310;2022-09-03T02:23:25;94979.97;;;23.46;52.71
20062;BME280;10191;42.710;23.310;2022-09-03T02:25:55;94982.44;;;23.53;52.76
20062;BME280;10191;42.710;23.310;2022-09-03T02:28:21;94982.53;;;23.58;52.55
20062;BME280;10191;42.710;23.310;2022-09-03T02:30:47;94992.63;;;23.59;52.76
20062;BME280;10191;42.710;23.310;2022-09-03T02:33:13;94983.31;;;23.59;52.33
20062;BME280;10191;42.710;23.310;2022-09-03T02:35:40;94993.28;;;23.54;52.25
20062;BME280;10191;42.710;23.310;2022-09-03T02:38:21;94984.56;;;23.43;52.32
20062;BME280;10191;42.710;23.310;2022-09-03T02:40:47;94995.22;;;23.48;52.60
20062;BME280;10191;42.710;23.310;2022-09-03T02:43:17;94989.84;;;23.50;52.72
20062;BME280;10191;42.710;23.310;2022-09-03T02:45:49;94957.22;;;23.31;52.59
20062;BME280;10191;42.710;23.310;2022-09-03T02:48:19;94982.31;;;23.47;52.53
20062;BME280;10191;42.710;23.310;2022-09-03T02:50:47;94989.38;;;23.52;52.37
20062;BME280;10191;42.710;23.310;2022-09-03T02:53:12;95007.16;;;23.52;52.27
20062;BME280;10191;42.710;23.310;2022-09-03T02:55:38;95005.00;;;23.47;52.29
20062;BME280;10191;42.710;23.310;2022-09-03T02:58:03;94993.47;;;23.51;52.20
20062;BME280;10191;42.710;23.310;2022-09-03T03:00:31;95005.09;;;23.53;52.28
20062;BME280;10191;42.710;23.310;2022-09-03T03:02:57;94997.88;;;23.52;52.41
20062;BME280;10191;42.710;23.310;2022-09-03T03:08:11;95001.03;;;23.54;52.73
20062;BME280;10191;42.710;23.310;2022-09-03T03:10:42;95006.00;;;23.59;52.37
20062;BME280;10191;42.710;23.310;2022-09-03T03:13:11;94996.91;;;23.55;52.28
20062;BME280;10191;42.710;23.310;2022-09-03T03:15:36;94984.25;;;23.41;52.25
20062;BME280;10191;42.710;23.310;2022-09-03T03:18:03;94993.41;;;23.36;52.63
20062;BME280;10191;42.710;23.310;2022-09-03T03:20:28;94991.69;;;23.39;52.56
20062;BME280;10191;42.710;23.310;2022-09-03T03:22:54;94991.19;;;23.40;52.28
20062;BME280;10191;42.710;23.310;2022-09-03T03:25:20;94993.72;;;23.38;52.75
20062;BME280;10191;42.710;23.310;2022-09-03T03:27:45;94988.47;;;23.46;52.61
20062;BME280;10191;42.710;23.310;2022-09-03T03:30:11;94985.81;;;23.42;52.66
20062;BME280;10191;42.710;23.310;2022-09-03T03:32:37;94998.34;;;23.50;52.46
20062;BME280;10191;42.710;23.310;2022-09-03T03:35:06;94995.91;;;23.43;52.34
20062;BME280;10191;42.710;23.310;2022-09-03T03:37:32;94994.50;;;23.39;52.56
20062;BME280;10191;42.710;23.310;2022-09-03T03:39:58;94980.81;;;23.37;52.52
20062;BME280;10191;42.710;23.310;2022-09-03T03:42:24;94992.28;;;23.43;52.13
20062;BME280;10191;42.710;23.310;2022-09-03T03:44:49;95003.47;;;23.37;52.11
20062;BME280;10191;42.710;23.310;2022-09-03T03:47:15;94989.06;;;23.26;52.38
20062;BME280;10191;42.710;23.310;2022-09-03T03:49:44;94991.22;;;23.31;52.25
20062;BME280;10191;42.710;23.310;2022-09-03T03:52:09;94990.59;;;23.36;52.38
20062;BME280;10191;42.710;23.310;2022-09-03T03:54:35;94993.84;;;23.44;52.49
20062;BME280;10191;42.710;23.310;2022-09-03T03:57:00;94997.16;;;23.42;52.31
20062;BME280;10191;42.710;23.310;2022-09-03T03:59:26;94997.41;;;23.53;52.44
20062;BME280;10191;42.710;23.310;2022-09-03T04:01:54;94998.66;;;23.52;52.21
20062;BME280;10191;42.710;23.310;2022-09-03T04:04:20;95003.06;;;23.53;52.13
20062;BME280;10191;42.710;23.310;2022-09-03T04:06:45;95000.53;;;23.55;52.20
20062;BME280;10191;42.710;23.310;2022-09-03T04:09:11;94995.13;;;23.43;51.95
20062;BME280;10191;42.710;23.310;2022-09-03T04:11:36;94995.91;;;23.43;52.12
20062;BME280;10191;42.710;23.310;2022-09-03T04:14:02;94992.28;;;23.43;51.87
20062;BME280;10191;42.710;23.310;2022-09-03T04:16:27;94987.13;;;23.32;52.04
20062;BME280;10191;42.710;23.310;2022-09-03T04:18:54;94990.88;;;23.38;52.30
20062;BME280;10191;42.710;23.310;2022-09-03T04:21:22;94996.44;;;23.33;52.11
20062;BME280;10191;42.710;23.310;2022-09-03T04:23:49;94998.16;;;23.30;52.17
20062;BME280;10191;42.710;23.310;2022-09-03T04:26:24;95005.34;;;23.40;52.29
20062;BME280;10191;42.710;23.310;2022-09-03T04:28:50;95004.41;;;23.43;52.26
20062;BME280;10191;42.710;23.310;2022-09-03T04:31:22;95010.72;;;23.38;52.12
20062;BME280;10191;42.710;23.310;2022-09-03T04:33:48;95017.97;;;23.39;52.26
20062;BME280;10191;42.710;23.310;2022-09-03T04:36:19;95024.25;;;23.43;52.17
20062;BME280;10191;42.710;23.310;2022-09-03T04:38:46;95022.97;;;23.44;52.22
20062;BME280;10191;42.710;23.310;2022-09-03T04:41:17;95025.16;;;23.49;52.25
20062;BME280;10191;42.710;23.310;2022-09-03T04:43:43;95029.66;;;23.56;51.88
20062;BME280;10191;42.710;23.310;2022-09-03T04:46:10;95028.38;;;23.57;51.87
20062;BME280;10191;42.710;23.310;2022-09-03T04:48:37;95038.28;;;23.61;52.17
20062;BME280;10191;42.710;23.310;2022-09-03T04:51:10;95038.03;;;23.50;51.85
20062;BME280;10191;42.710;23.310;2022-09-03T04:53:39;95045.34;;;23.42;52.17
20062;BME280;10191;42.710;23.310;2022-09-03T04:56:20;95047.97;;;23.46;52.07
20062;BME280;10191;42.710;23.310;2022-09-03T04:58:47;95060.91;;;23.47;52.34
20062;BME280;10191;42.710;23.310;2022-09-03T05:01:18;95049.06;;;23.48;52.13
20062;BME280;10191;42.710;23.310;2022-09-03T05:03:44;95059.56;;;23.57;51.97
20062;BME280;10191;42.710;23.310;2022-09-03T05:06:10;95063.00;;;23.61;52.11
20062;BME280;10191;42.710;23.310;2022-09-03T05:08:36;95068.38;;;23.59;51.83
20062;BME280;10191;42.710;23.310;2022-09-03T05:11:03;95071.94;;;23.68;51.84
20062;BME280;10191;42.710;23.310;2022-09-03T05:13:29;95060.78;;;23.65;52.10
20062;BME280;10191;42.710;23.310;2022-09-03T05:16:06;95065.50;;;23.68;51.99
20062;BME280;10191;42.710;23.310;2022-09-03T05:18:32;95069.13;;;23.68;51.81
20062;BME280;10191;42.710;23.310;2022-09-03T05:21:05;95068.63;;;23.70;51.69
20062;BME280;10191;42.710;23.310;2022-09-03T05:23:33;95067.84;;;23.69;51.89
20062;BME280;10191;42.710;23.310;2022-09-03T05:26:01;95055.88;;;23.65;51.57
20062;BME280;10191;42.710;23.310;2022-09-03T05:28:28;95057.34;;;23.61;51.53
20062;BME280;10191;42.710;23.310;2022-09-03T05:31:00;95064.69;;;23.67;51.56
20062;BME280;10191;42.710;23.310;2022-09-03T05:33:26;95071.50;;;23.61;51.62
20062;BME280;10191;42.710;23.310;2022-09-03T05:35:53;95065.84;;;23.61;51.53
20062;BME280;10191;42.710;23.310;2022-09-03T05:38:19;95069.16;;;23.59;51.59
20062;BME280;10191;42.710;23.310;2022-09-03T05:40:44;95070.06;;;23.65;51.89
20062;BME280;10191;42.710;23.310;2022-09-03T05:43:10;95079.97;;;23.70;51.73
20062;BME280;10191;42.710;23.310;2022-09-03T05:45:35;95081.59;;;23.85;51.85
20062;BME280;10191;42.710;23.310;2022-09-03T05:48:01;95076.09;;;24.06;51.72
20062;BME280;10191;42.710;23.310;2022-09-03T05:50:27;95067.00;;;24.16;51.70
20062;BME280;10191;42.710;23.310;2022-09-03T05:52:53;95066.44;;;24.27;51.71
20062;BME280;10191;42.710;23.310;2022-09-03T05:55:18;95074.31;;;24.46;51.29
20062;BME280;10191;42.710;23.310;2022-09-03T05:57:44;95079.59;;;24.53;51.21
20062;BME280;10191;42.710;23.310;2022-09-03T06:00:10;95077.44;;;24.63;51.27
20062;BME280;10191;42.710;23.310;2022-09-03T06:02:36;95081.66;;;24.67;51.15
20062;BME280;10191;42.710;23.310;2022-09-03T06:05:02;95081.75;;;24.73;51.05
20062;BME280;10191;42.710;23.310;2022-09-03T06:07:28;95086.00;;;24.77;51.08
20062;BME280;10191;42.710;23.310;2022-09-03T06:09:53;95071.50;;;24.75;51.07
20062;BME280;10191;42.710;23.310;2022-09-03T06:12:19;95087.06;;;24.80;51.05
20062;BME280;10191;42.710;23.310;2022-09-03T06:14:44;95090.78;;;24.86;51.04
20062;BME280;10191;42.710;23.310;2022-09-03T06:17:10;95083.28;;;24.83;51.04
20062;BME280;10191;42.710;23.310;2022-09-03T06:19:37;95092.84;;;25.00;50.96
20062;BME280;10191;42.710;23.310;2022-09-03T06:22:03;95092.34;;;25.16;50.96
20062;BME280;10191;42.710;23.310;2022-09-03T06:24:28;95087.84;;;25.10;50.96
20062;BME280;10191;42.710;23.310;2022-09-03T06:26:57;95072.16;;;25.14;51.13
20062;BME280;10191;42.710;23.310;2022-09-03T06:29:22;95082.22;;;25.30;51.42
20062;BME280;10191;42.710;23.310;2022-09-03T06:31:48;95087.41;;;25.66;51.47
20062;BME280;10191;42.710;23.310;2022-09-03T06:34:15;95094.84;;;25.98;51.54
20062;BME280;10191;42.710;23.310;2022-09-03T06:36:43;95102.22;;;26.25;51.36
20062;BME280;10191;42.710;23.310;2022-09-03T06:39:08;95092.72;;;26.34;50.73
20062;BME280;10191;42.710;23.310;2022-09-03T06:41:34;95067.13;;;26.13;50.62
20062;BME280;10191;42.710;23.310;2022-09-03T06:44:02;95096.78;;;26.27;50.63
20062;BME280;10191;42.710;23.310;2022-09-03T06:46:30;95088.88;;;26.82;48.70
20062;BME280;10191;42.710;23.310;2022-09-03T06:48:56;95096.19;;;26.43;49.63
20062;BME280;10191;42.710;23.310;2022-09-03T06:51:24;95102.06;;;26.14;50.03
20062;BME280;10191;42.710;23.310;2022-09-03T06:54:04;95094.41;;;26.05;50.62
20062;BME280;10191;42.710;23.310;2022-09-03T06:56:30;95095.13;;;26.00;50.60
20062;BME280;10191;42.710;23.310;2022-09-03T06:58:59;95096.31;;;25.94;50.32
20062;BME280;10191;42.710;23.310;2022-09-03T07:01:29;95094.50;;;25.91;50.54
20062;BME280;10191;42.710;23.310;2022-09-03T07:04:00;95093.19;;;25.72;50.57
20062;BME280;10191;42.710;23.310;2022-09-03T07:06:28;95105.72;;;25.80;50.76
20062;BME280;10191;42.710;23.310;2022-09-03T07:08:54;95103.38;;;25.78;50.53
20062;BME280;10191;42.710;23.310;2022-09-03T07:11:23;95112.78;;;25.84;50.41
20062;BME280;10191;42.710;23.310;2022-09-03T07:13:51;95116.69;;;25.87;50.37
20062;BME280;10191;42.710;23.310;2022-09-03T07:16:38;95108.88;;;26.42;48.68
20062;BME280;10191;42.710;23.310;2022-09-03T07:19:06;95116.69;;;26.07;49.49
20062;BME280;10191;42.710;23.310;2022-09-03T07:21:34;95122.22;;;25.96;49.86
20062;BME280;10191;42.710;23.310;2022-09-03T07:24:04;95116.47;;;25.90;50.13
20062;BME280;10191;42.710;23.310;2022-09-03T07:26:31;95119.38;;;25.76;50.34
20062;BME280;10191;42.710;23.310;2022-09-03T07:28:58;95125.13;;;25.81;50.95
20062;BME280;10191;42.710;23.310;2022-09-03T07:31:37;95123.06;;;26.16;51.18
20062;BME280;10191;42.710;23.310;2022-09-03T07:34:05;95131.91;;;26.64;51.33
20062;BME280;10191;42.710;23.310;2022-09-03T07:36:43;95128.84;;;27.19;51.56
20062;BME280;10191;42.710;23.310;2022-09-03T07:39:13;95125.34;;;27.61;51.43
20062;BME280;10191;42.710;23.310;2022-09-03T07:41:40;95146.38;;;28.00;51.18
20062;BME280;10191;42.710;23.310;2022-09-03T07:44:08;95140.66;;;28.00;50.82
20062;BME280;10191;42.710;23.310;2022-09-03T07:46:35;95132.75;;;27.84;50.94
20062;BME280;10191;42.710;23.310;2022-09-03T07:49:03;95141.09;;;27.93;50.26
20062;BME280;10191;42.710;23.310;2022-09-03T07:51:33;95136.41;;;27.90;50.28
20062;BME280;10191;42.710;23.310;2022-09-03T07:54:00;95140.69;;;28.06;50.48
20062;BME280;10191;42.710;23.310;2022-09-03T07:56:27;95145.78;;;27.91;50.10
20062;BME280;10191;42.710;23.310;2022-09-03T07:58:55;95140.88;;;27.29;50.06
20062;BME280;10191;42.710;23.310;2022-09-03T08:01:22;95142.41;;;26.98;50.36
20062;BME280;10191;42.710;23.310;2022-09-03T08:03:50;95146.88;;;26.79;50.49
20062;BME280;10191;42.710;23.310;2022-09-03T08:06:19;95148.75;;;26.88;50.90
20062;BME280;10191;42.710;23.310;2022-09-03T08:08:46;95137.50;;;27.30;51.45
20062;BME280;10191;42.710;23.310;2022-09-03T08:11:16;95146.25;;;27.89;51.34
20062;BME280;10191;42.710;23.310;2022-09-03T08:13:44;95151.16;;;28.25;50.23
20062;BME280;10191;42.710;23.310;2022-09-03T08:16:12;95150.50;;;28.52;50.30
20062;BME280;10191;42.710;23.310;2022-09-03T08:18:38;95143.84;;;28.67;50.00
20062;BME280;10191;42.710;23.310;2022-09-03T08:21:09;95158.69;;;28.76;49.32
20062;BME280;10191;42.710;23.310;2022-09-03T08:23:38;95148.81;;;28.83;49.49
20062;BME280;10191;42.710;23.310;2022-09-03T08:26:05;95157.41;;;28.83;49.69
20062;BME280;10191;42.710;23.310;2022-09-03T08:28:31;95132.94;;;28.71;49.52
20062;BME280;10191;42.710;23.310;2022-09-03T08:31:06;95139.50;;;28.88;49.63
20062;BME280;10191;42.710;23.310;2022-09-03T08:33:31;95140.59;;;29.29;49.57
20062;BME280;10191;42.710;23.310;2022-09-03T08:36:09;95139.59;;;29.60;49.55
20062;BME280;10191;42.710;23.310;2022-09-03T08:38:37;95146.88;;;29.50;49.50
20062;BME280;10191;42.710;23.310;2022-09-03T08:41:22;95144.78;;;29.50;49.94
20062;BME280;10191;42.710;23.310;2022-09-03T08:47:11;95133.56;;;30.76;50.57
20062;BME280;10191;42.710;23.310;2022-09-03T08:52:19;95145.06;;;31.22;49.25
20062;BME280;10191;42.710;23.310;2022-09-03T08:54:47;95140.34;;;30.78;48.72
20062;BME280;10191;42.710;23.310;2022-09-03T08:57:15;95144.84;;;30.63;48.98
20062;BME280;10191;42.710;23.310;2022-09-03T08:59:43;95145.41;;;30.56;48.69
20062;BME280;10191;42.710;23.310;2022-09-03T09:02:40;95146.25;;;30.45;48.80
20062;BME280;10191;42.710;23.310;2022-09-03T09:08:39;95148.59;;;30.25;49.13
20062;BME280;10191;42.710;23.310;2022-09-03T09:10:45;95138.44;;;30.29;48.79
20062;BME280;10191;42.710;23.310;2022-09-03T09:16:05;95148.94;;;29.49;49.31
20062;BME280;10191;42.710;23.310;2022-09-03T09:21:12;95142.94;;;29.42;49.73
20062;BME280;10191;42.710;23.310;2022-09-03T09:23:49;95134.63;;;29.66;49.32
20062;BME280;10191;42.710;23.310;2022-09-03T09:26:19;95147.38;;;29.98;48.59
20062;BME280;10191;42.710;23.310;2022-09-03T09:29:14;95151.44;;;30.47;48.81
20062;BME280;10191;42.710;23.310;2022-09-03T09:31:40;95146.16;;;31.14;48.29
20062;BME280;10191;42.710;23.310;2022-09-03T09:34:09;95150.94;;;31.76;48.24
20062;BME280;10191;42.710;23.310;2022-09-03T09:36:41;95146.88;;;31.96;48.27
20062;BME280;10191;42.710;23.310;2022-09-03T09:39:09;95129.09;;;31.97;48.18
20062;BME280;10191;42.710;23.310;2022-09-03T09:41:35;95152.75;;;32.33;47.61
20062;BME280;10191;42.710;23.310;2022-09-03T09:44:03;95142.22;;;32.17;47.14
20062;BME280;10191;42.710;23.310;2022-09-03T09:46:36;95145.97;;;31.47;47.89
20062;BME280;10191;42.710;23.310;2022-09-03T09:49:17;95147.94;;;31.22;48.80
20062;BME280;10191;42.710;23.310;2022-09-03T09:51:47;95144.69;;;31.42;49.71
20062;BME280;10191;42.710;23.310;2022-09-03T09:54:17;95157.78;;;32.27;49.24
20062;BME280;10191;42.710;23.310;2022-09-03T09:56:45;95153.19;;;32.85;47.93
20062;BME280;10191;42.710;23.310;2022-09-03T09:59:16;95165.88;;;32.95;47.37
20062;BME280;10191;42.710;23.310;2022-09-03T10:01:44;95159.59;;;32.97;47.16
20062;BME280;10191;42.710;23.310;2022-09-03T10:04:32;95170.66;;;33.12;46.96
20062;BME280;10191;42.710;23.310;2022-09-03T10:10:39;95165.84;;;32.77;47.30
20062;BME280;10191;42.710;23.310;2022-09-03T10:13:01;95158.94;;;34.23;45.24
20062;BME280;10191;42.710;23.310;2022-09-03T10:15:32;95166.53;;;35.18;43.66
20062;BME280;10191;42.710;23.310;2022-09-03T10:21:00;95159.56;;;35.81;42.25
20062;BME280;10191;42.710;23.310;2022-09-03T10:23:29;95154.56;;;35.14;42.41
20062;BME280;10191;42.710;23.310;2022-09-03T10:26:04;95154.13;;;34.71;42.92
20062;BME280;10191;42.710;23.310;2022-09-03T10:28:32;95150.09;;;34.87;42.62
20062;BME280;10191;42.710;23.310;2022-09-03T10:34:03;95168.16;;;35.73;41.97
20062;BME280;10191;42.710;23.310;2022-09-03T10:36:23;95158.47;;;36.04;41.74
20062;BME280;10191;42.710;23.310;2022-09-03T10:39:12;95155.09;;;36.14;41.17
20062;BME280;10191;42.710;23.310;2022-09-03T10:46:53;95161.13;;;36.23;40.35
20062;BME280;10191;42.710;23.310;2022-09-03T10:49:27;95161.19;;;35.89;40.81
20062;BME280;10191;42.710;23.310;2022-09-03T10:52:02;95155.56;;;36.04;41.09
20062;BME280;10191;42.710;23.310;2022-09-03T10:57:04;95161.22;;;35.56;41.44
20062;BME280;10191;42.710;23.310;2022-09-03T11:07:47;95164.31;;;36.12;40.91
20062;BME280;10191;42.710;23.310;2022-09-03T11:12:40;95155.41;;;36.51;40.70
20062;BME280;10191;42.710;23.310;2022-09-03T11:15:41;95156.13;;;36.24;41.09
20062;BME280;10191;42.710;23.310;2022-09-03T11:20:39;95163.44;;;36.25;41.24
20062;BME280;10191;42.710;23.310;2022-09-03T11:23:06;95156.03;;;35.75;41.55
20062;BME280;10191;42.710;23.310;2022-09-03T11:25:36;95162.47;;;35.47;41.79
20062;BME280;10191;42.710;23.310;2022-09-03T11:33:13;95166.00;;;36.49;40.48
20062;BME280;10191;42.710;23.310;2022-09-03T11:35:43;95158.22;;;36.44;40.60
20062;BME280;10191;42.710;23.310;2022-09-03T11:41:33;95161.09;;;36.64;40.31
20062;BME280;10191;42.710;23.310;2022-09-03T11:43:27;95154.00;;;36.03;39.98
20062;BME280;10191;42.710;23.310;2022-09-03T11:46:28;95146.94;;;35.50;39.89
20062;BME280;10191;42.710;23.310;2022-09-03T11:48:50;95149.31;;;35.59;40.18
20062;BME280;10191;42.710;23.310;2022-09-03T11:51:36;95154.47;;;36.08;40.24
20062;BME280;10191;42.710;23.310;2022-09-03T11:56:28;95153.25;;;36.80;39.86
20062;BME280;10191;42.710;23.310;2022-09-03T11:59:02;95148.66;;;36.56;39.41
20062;BME280;10191;42.710;23.310;2022-09-03T12:01:28;95157.50;;;35.89;39.37
20062;BME280;10191;42.710;23.310;2022-09-03T12:03:59;95154.34;;;35.79;39.74
20062;BME280;10191;42.710;23.310;2022-09-03T12:14:16;95139.44;;;36.09;39.75
20062;BME280;10191;42.710;23.310;2022-09-03T12:19:30;95129.28;;;36.44;39.16
20062;BME280;10191;42.710;23.310;2022-09-03T12:22:00;95135.22;;;36.38;38.92
20062;BME280;10191;42.710;23.310;2022-09-03T12:24:27;95127.38;;;36.46;38.77
20062;BME280;10191;42.710;23.310;2022-09-03T12:27:01;95125.69;;;36.51;38.97
20062;BME280;10191;42.710;23.310;2022-09-03T12:29:28;95128.78;;;36.81;38.87
20062;BME280;10191;42.710;23.310;2022-09-03T12:31:53;95138.41;;;37.12;39.28
20062;BME280;10191;42.710;23.310;2022-09-03T12:34:20;95132.66;;;37.27;39.20
20062;BME280;10191;42.710;23.310;2022-09-03T12:36:48;95137.38;;;36.94;39.22
20062;BME280;10191;42.710;23.310;2022-09-03T12:42:17;95133.97;;;36.47;39.22
20062;BME280;10191;42.710;23.310;2022-09-03T12:47:08;95135.09;;;37.00;38.89
20062;BME280;10191;42.710;23.310;2022-09-03T12:49:44;95132.19;;;37.43;38.73
20062;BME280;10191;42.710;23.310;2022-09-03T12:54:45;95128.06;;;37.90;37.76
20062;BME280;10191;42.710;23.310;2022-09-03T12:57:13;95116.47;;;38.05;37.88
20062;BME280;10191;42.710;23.310;2022-09-03T12:59:47;95115.13;;;37.98;37.82
20062;BME280;10191;42.710;23.310;2022-09-03T13:02:37;95126.50;;;38.64;37.66
20062;BME280;10191;42.710;23.310;2022-09-03T13:05:00;95113.13;;;39.46;36.43
20062;BME280;10191;42.710;23.310;2022-09-03T13:07:33;95113.19;;;40.03;35.66
20062;BME280;10191;42.710;23.310;2022-09-03T13:10:04;95107.19;;;40.51;34.79
20062;BME280;10191;42.710;23.310;2022-09-03T13:12:41;95110.09;;;40.92;34.11
20062;BME280;10191;42.710;23.310;2022-09-03T13:15:07;95115.78;;;41.68;33.46
20062;BME280;10191;42.710;23.310;2022-09-03T13:21:02;95106.69;;;40.79;36.87
20062;BME280;10191;42.710;23.310;2022-09-03T13:29:36;95096.41;;;39.15;37.73
20062;BME280;10191;42.710;23.310;2022-09-03T13:32:36;95090.41;;;40.59;35.91
20062;BME280;10191;42.710;23.310;2022-09-03T13:38:06;95089.19;;;42.18;34.17
20062;BME280;10191;42.710;23.310;2022-09-03T13:40:48;95093.97;;;41.26;34.99
20062;BME280;10191;42.710;23.310;2022-09-03T13:46:27;95096.97;;;42.06;34.28
20062;BME280;10191;42.710;23.310;2022-09-03T13:51:59;95079.00;;;41.82;34.19
20062;BME280;10191;42.710;23.310;2022-09-03T13:54:32;95093.84;;;42.40;33.60
20062;BME280;10191;42.710;23.310;2022-09-03T13:57:17;95091.34;;;41.90;34.16
20062;BME280;10191;42.710;23.310;2022-09-03T13:59:48;95094.06;;;40.17;35.25
20062;BME280;10191;42.710;23.310;2022-09-03T14:02:27;95082.47;;;39.53;35.84
20062;BME280;10191;42.710;23.310;2022-09-03T14:05:16;95091.94;;;39.21;35.71
20062;BME280;10191;42.710;23.310;2022-09-03T14:07:57;95103.72;;;39.95;35.14
20062;BME280;10191;42.710;23.310;2022-09-03T14:11:12;95088.84;;;40.16;35.35
20062;BME280;10191;42.710;23.310;2022-09-03T14:16:48;95079.72;;;37.92;37.20
20062;BME280;10191;42.710;23.310;2022-09-03T14:19:26;95094.25;;;36.55;38.31
20062;BME280;10191;42.710;23.310;2022-09-03T14:22:00;95092.13;;;36.27;38.30
20062;BME280;10191;42.710;23.310;2022-09-03T14:27:31;95088.06;;;37.96;36.70
20062;BME280;10191;42.710;23.310;2022-09-03T14:29:59;95083.59;;;39.18;35.69
20062;BME280;10191;42.710;23.310;2022-09-03T14:55:47;95086.28;;;38.68;35.94
20062;BME280;10191;42.710;23.310;2022-09-03T15:01:28;95088.03;;;37.88;35.65
20062;BME280;10191;42.710;23.310;2022-09-03T15:04:14;95093.25;;;36.45;36.42
20062;BME280;10191;42.710;23.310;2022-09-03T15:07:11;95093.72;;;35.12;37.85
20062;BME280;10191;42.710;23.310;2022-09-03T15:10:01;95084.00;;;34.10;38.24
20062;BME280;10191;42.710;23.310;2022-09-03T15:15:17;95079.91;;;32.49;39.59
20062;BME280;10191;42.710;23.310;2022-09-03T15:17:53;95084.19;;;32.18;40.34
20062;BME280;10191;42.710;23.310;2022-09-03T15:34:32;95100.19;;;32.38;37.67
20062;BME280;10191;42.710;23.310;2022-09-03T15:37:01;95095.09;;;32.25;37.84
20062;BME280;10191;42.710;23.310;2022-09-03T15:39:37;95105.69;;;32.12;37.53
20062;BME280;10191;42.710;23.310;2022-09-03T15:42:22;95094.50;;;31.14;39.83
20062;BME280;10191;42.710;23.310;2022-09-03T15:44:53;95108.81;;;30.78;40.64
20062;BME280;10191;42.710;23.310;2022-09-03T15:56:22;95115.59;;;30.01;41.12
20062;BME280;10191;42.710;23.310;2022-09-03T15:59:22;95105.72;;;29.91;41.35
20062;BME280;10191;42.710;23.310;2022-09-03T16:02:06;95113.28;;;29.78;41.41
20062;BME280;10191;42.710;23.310;2022-09-03T16:10:16;95113.56;;;29.58;41.28
20062;BME280;10191;42.710;23.310;2022-09-03T16:12:40;95099.66;;;30.17;39.82
20062;BME280;10191;42.710;23.310;2022-09-03T16:15:14;95105.91;;;30.32;39.30
20062;BME280;10191;42.710;23.310;2022-09-03T16:18:01;95114.97;;;30.42;38.75
20062;BME280;10191;42.710;23.310;2022-09-03T16:20:38;95114.25;;;30.19;38.82
20062;BME280;10191;42.710;23.310;2022-09-03T16:23:18;95134.84;;;30.18;38.70
20062;BME280;10191;42.710;23.310;2022-09-03T16:25:50;95129.41;;;30.03;38.62
20062;BME280;10191;42.710;23.310;2022-09-03T16:28:24;95129.44;;;29.92;38.59
20062;BME280;10191;42.710;23.310;2022-09-03T16:42:17;95144.25;;;29.41;39.18